Time;durP1;ratioP1;P1;durP2;ratioP2;P2;SDS_P1;SDS_P2;PMS_P1;PMS_P2;Temp;Humidity;BMP_temperature;BMP_pressure;BME280_temperature;BME280_humidity;BME280_pressure;Samples;Min_cycle;Max_cycle;Signal;HPM_P1;HPM_P2
2023/05/25 00:00:41;;;;;;;45.43;7.47;;;21.30;49.90;;;;;;5068587;28;20227;-93
2023/05/25 00:03:08;;;;;;;32.60;6.60;;;21.30;49.90;;;;;;5075835;28;20213;-94
2023/05/25 00:05:36;;;;;;;41.17;7.40;;;21.30;49.90;;;;;;5069769;28;20207;-94
2023/05/25 00:08:03;;;;;;;40.77;6.97;;;21.30;49.90;;;;;;5068208;28;20206;-93
2023/05/25 00:10:30;;;;;;;34.13;6.90;;;21.20;49.90;;;;;;5068006;28;20215;-94
2023/05/25 00:12:58;;;;;;;41.23;7.07;;;21.20;49.90;;;;;;5067954;28;20223;-93
2023/05/25 00:15:26;;;;;;;30.17;6.33;;;21.20;50.50;;;;;;5068483;28;21039;-92
2023/05/25 00:17:53;;;;;;;43.10;7.23;;;21.20;49.90;;;;;;5068115;28;20294;-93
2023/05/25 00:20:20;;;;;;;44.03;7.27;;;21.20;49.90;;;;;;5068203;28;20214;-94
2023/05/25 00:22:47;;;;;;;41.70;7.23;;;21.10;49.80;;;;;;5073479;28;20761;-93
2023/05/25 00:25:14;;;;;;;55.00;8.03;;;21.20;49.90;;;;;;5080912;28;20295;-93
2023/05/25 00:27:41;;;;;;;43.17;7.67;;;21.20;49.90;;;;;;5087701;28;20201;-92
2023/05/25 00:30:11;;;;;;;32.17;6.47;;;21.10;49.80;;;;;;5083635;28;20759;-92
2023/05/25 00:32:41;;;;;;;40.30;7.17;;;21.10;49.80;;;;;;5067386;28;20264;-92
2023/05/25 00:35:08;;;;;;;41.93;7.33;;;21.10;49.80;;;;;;5074124;28;20217;-93
2023/05/25 00:37:35;;;;;;;35.60;6.87;;;21.10;49.80;;;;;;5087967;28;20318;-92
2023/05/25 00:40:03;;;;;;;42.87;7.07;;;21.10;49.80;;;;;;5087250;28;20214;-92
2023/05/25 00:42:34;;;;;;;39.87;7.00;;;21.00;49.80;;;;;;5076907;28;20277;-91
2023/05/25 00:45:01;;;;;;;39.73;6.90;;;21.00;50.30;;;;;;5081294;28;20208;-93
2023/05/25 00:47:32;;;;;;;32.97;6.67;;;21.00;49.80;;;;;;5081355;28;20739;-93
2023/05/25 00:50:01;;;;;;;81.67;9.97;;;21.00;49.80;;;;;;5068782;28;20204;-93
2023/05/25 00:52:28;;;;;;;57.80;8.73;;;21.00;49.80;;;;;;5072781;28;20279;-93
2023/05/25 00:54:56;;;;;;;42.73;7.03;;;21.00;49.80;;;;;;5082088;28;20199;-92
2023/05/25 00:57:28;;;;;;;36.57;6.73;;;20.90;49.70;;;;;;5087496;28;20667;-93
2023/05/25 00:59:57;;;;;;;41.40;7.20;;;20.90;49.70;;;;;;5086008;28;20223;-93
2023/05/25 01:02:26;;;;;;;60.70;8.77;;;20.90;49.70;;;;;;5080198;28;20265;-94
2023/05/25 01:04:58;;;;;;;43.50;7.07;;;20.90;49.70;;;;;;5073881;28;20371;-94
2023/05/25 01:07:27;;;;;;;43.57;7.47;;;20.90;49.70;;;;;;5074118;28;20230;-93
2023/05/25 01:09:58;;;;;;;38.13;7.40;;;20.90;49.70;;;;;;5076205;28;20205;-93
2023/05/25 01:12:28;;;;;;;46.50;7.67;;;20.80;49.60;;;;;;5086685;28;20338;-93
2023/05/25 01:14:56;;;;;;;39.97;7.07;;;20.90;49.70;;;;;;5069806;28;20200;-93
2023/05/25 01:17:24;;;;;;;42.47;7.40;;;20.80;49.70;;;;;;5074558;28;20203;-92
2023/05/25 01:19:51;;;;;;;42.07;7.53;;;20.80;49.80;;;;;;5087840;28;20544;-93
2023/05/25 01:22:39;;;;;;;42.77;7.10;;;20.80;49.80;;;;;;5091486;28;20681;-93
2023/05/25 01:25:12;;;;;;;41.30;7.20;;;20.70;49.60;;;;;;5089771;28;20275;-93
2023/05/25 01:27:44;;;;;;;40.90;7.80;;;20.80;49.80;;;;;;5073920;28;20235;-93
2023/05/25 01:30:15;;;;;;;35.00;6.53;;;20.70;49.70;;;;;;5084766;28;20644;-92
2023/05/25 01:32:43;;;;;;;57.70;8.60;;;20.80;49.80;;;;;;5087484;28;20222;-93
2023/05/25 01:35:11;;;;;;;50.30;8.00;;;20.70;49.70;;;;;;5085385;28;20213;-92
2023/05/25 01:37:45;;;;;;;35.67;6.73;;;20.80;49.80;;;;;;5085330;28;20199;-93
2023/05/25 01:40:14;;;;;;;31.07;6.27;;;20.70;49.80;;;;;;5083330;28;20198;-92
2023/05/25 01:42:42;;;;;;;43.83;7.50;;;20.70;49.70;;;;;;5090763;28;20210;-93
2023/05/25 01:45:11;;;;;;;38.60;6.97;;;20.70;49.80;;;;;;5077741;28;20302;-93
2023/05/25 01:47:45;;;;;;;45.27;7.77;;;20.70;49.80;;;;;;5090878;28;20203;-93
2023/05/25 01:50:18;;;;;;;42.33;7.70;;;20.70;49.80;;;;;;5091240;28;20745;-92
2023/05/25 01:52:55;;;;;;;50.20;7.73;;;20.60;49.70;;;;;;5090229;28;20310;-92
2023/05/25 01:55:25;;;;;;;45.43;7.60;;;20.60;49.70;;;;;;5090985;28;20284;-93
2023/05/25 01:58:08;;;;;;;52.10;8.03;;;20.60;49.70;;;;;;5091419;28;20202;-92
2023/05/25 02:00:36;;;;;;;47.73;7.80;;;20.60;49.80;;;;;;5092011;28;20219;-92
2023/05/25 02:03:04;;;;;;;37.97;7.13;;;20.50;49.70;;;;;;5092694;28;20731;-93
2023/05/25 02:05:31;;;;;;;51.70;8.37;;;20.50;49.70;;;;;;5113104;28;20236;-92
2023/05/25 02:08:00;;;;;;;33.50;6.87;;;20.50;49.70;;;;;;5093717;28;20208;-93
2023/05/25 02:10:27;;;;;;;54.53;8.00;;;20.50;49.70;;;;;;5090911;28;20226;-93
2023/05/25 02:12:54;;;;;;;53.33;7.97;;;20.50;49.70;;;;;;5089841;28;20321;-94
2023/05/25 02:15:22;;;;;;;33.27;6.30;;;20.50;49.70;;;;;;5092056;28;20290;-94
2023/05/25 02:17:56;;;;;;;51.90;7.70;;;20.40;49.70;;;;;;5089020;28;20192;-93
2023/05/25 02:20:26;;;;;;;25.77;5.73;;;20.40;49.60;;;;;;5090780;28;20557;-92
2023/05/25 02:22:53;;;;;;;45.17;7.30;;;20.40;49.70;;;;;;5082012;28;20210;-93
2023/05/25 02:25:23;;;;;;;36.13;6.47;;;20.40;49.70;;;;;;5072235;28;20218;-93
2023/05/25 02:27:53;;;;;;;40.07;7.13;;;20.40;49.70;;;;;;5077008;28;20207;-93
2023/05/25 02:30:20;;;;;;;39.20;7.07;;;20.40;49.70;;;;;;5071722;28;20208;-94
2023/05/25 02:32:47;;;;;;;32.60;6.57;;;20.40;49.70;;;;;;5087795;28;20226;-93
2023/05/25 02:35:15;;;;;;;38.40;7.17;;;20.30;49.70;;;;;;5080387;28;20200;-94
2023/05/25 02:37:42;;;;;;;34.53;6.67;;;20.30;49.70;;;;;;5074871;28;20272;-93
2023/05/25 02:40:17;;;;;;;44.60;7.27;;;20.30;49.70;;;;;;5077751;28;20532;-93
2023/05/25 02:42:45;;;;;;;52.73;8.20;;;20.30;49.70;;;;;;5081621;28;20199;-94
2023/05/25 02:45:12;;;;;;;39.23;7.03;;;20.20;49.60;;;;;;5069760;28;20231;-93
2023/05/25 02:47:39;;;;;;;42.77;7.03;;;20.30;49.70;;;;;;5069565;28;20203;-94
2023/05/25 02:50:07;;;;;;;35.10;6.60;;;20.20;49.60;;;;;;5082885;28;20203;-94
2023/05/25 02:52:34;;;;;;;50.10;8.03;;;20.20;49.70;;;;;;5072231;28;20703;-93
2023/05/25 02:57:50;;;;;;;54.37;8.07;;;20.20;49.70;;;;;;5083736;28;20215;-93
2023/05/25 03:00:18;;;;;;;41.77;7.23;;;20.20;49.70;;;;;;5083324;28;20250;-92
2023/05/25 03:02:48;;;;;;;47.23;7.93;;;20.20;49.70;;;;;;5076231;28;20203;-95
2023/05/25 03:05:18;;;;;;;39.77;6.67;;;20.10;49.70;;;;;;5090242;28;20293;-92
2023/05/25 03:07:46;;;;;;;35.10;7.07;;;20.10;49.70;;;;;;5091027;28;20199;-93
2023/05/25 03:10:13;;;;;;;41.57;7.50;;;20.10;49.70;;;;;;5083236;28;20249;-92
2023/05/25 03:12:40;;;;;;;36.83;7.10;;;20.10;49.70;;;;;;5069666;28;20314;-93
2023/05/25 03:15:11;;;;;;;34.93;6.30;;;20.10;49.70;;;;;;5069588;28;20298;-93
2023/05/25 03:17:40;;;;;;;39.33;7.60;;;20.10;49.70;;;;;;5069501;28;20554;-94
2023/05/25 03:20:09;;;;;;;41.80;7.30;;;20.10;49.70;;;;;;5076059;28;20206;-93
2023/05/25 03:22:36;;;;;;;50.37;8.10;;;20.00;49.70;;;;;;5087860;28;20225;-92
2023/05/25 03:25:03;;;;;;;36.90;6.73;;;20.00;49.70;;;;;;5087673;28;20183;-92
2023/05/25 03:27:30;;;;;;;47.67;7.90;;;20.00;49.70;;;;;;5081765;28;20285;-92
2023/05/25 03:29:57;;;;;;;38.17;7.57;;;20.00;49.70;;;;;;5085956;28;20230;-92
2023/05/25 03:32:25;;;;;;;38.23;7.30;;;20.00;49.70;;;;;;5082947;28;20681;-92
2023/05/25 03:34:52;;;;;;;42.17;7.50;;;19.90;49.60;;;;;;5082267;28;20719;-91
2023/05/25 03:37:19;;;;;;;47.90;8.10;;;19.90;49.60;;;;;;5079585;28;20318;-93
2023/05/25 03:39:46;;;;;;;34.03;6.93;;;19.90;49.60;;;;;;5072200;28;20301;-92
2023/05/25 03:42:13;;;;;;;42.67;7.33;;;19.90;49.70;;;;;;5072365;28;20214;-92
2023/05/25 03:44:40;;;;;;;51.13;8.17;;;19.90;49.70;;;;;;5080292;28;20297;-93
2023/05/25 03:47:07;;;;;;;30.33;6.33;;;19.90;49.70;;;;;;5083994;28;20209;-92
2023/05/25 03:49:36;;;;;;;43.97;7.80;;;19.90;49.70;;;;;;5073760;28;20261;-93
2023/05/25 03:52:04;;;;;;;41.70;6.83;;;19.80;49.60;;;;;;5082163;28;21085;-93
2023/05/25 03:54:31;;;;;;;42.73;7.17;;;19.80;49.70;;;;;;5074288;28;20222;-93
2023/05/25 03:56:58;;;;;;;37.47;7.07;;;19.80;49.60;;;;;;5087186;28;20238;-92
2023/05/25 03:59:25;;;;;;;36.07;7.30;;;19.80;49.60;;;;;;5079909;28;20293;-93
2023/05/25 04:01:53;;;;;;;53.00;7.60;;;19.70;49.60;;;;;;5067370;28;20570;-93
2023/05/25 04:04:21;;;;;;;32.57;6.30;;;19.80;49.60;;;;;;5069037;28;20209;-92
2023/05/25 04:07:06;;;;;;;42.23;7.20;;;19.80;49.60;;;;;;5074626;28;20221;-94
2023/05/25 04:09:33;;;;;;;47.80;7.63;;;19.70;49.60;;;;;;5092404;28;20199;-92
2023/05/25 04:12:01;;;;;;;36.67;7.13;;;19.70;49.60;;;;;;5076341;28;20213;-94
2023/05/25 04:14:35;;;;;;;42.30;7.33;;;19.70;49.60;;;;;;5088781;28;20262;-93
2023/05/25 04:17:02;;;;;;;34.47;6.57;;;19.70;50.20;;;;;;5068665;28;20288;-94
2023/05/25 04:19:41;;;;;;;49.90;8.17;;;19.70;49.60;;;;;;5069005;28;20203;-94
2023/05/25 04:22:09;;;;;;;38.63;6.90;;;19.60;49.60;;;;;;5071751;28;20198;-94
2023/05/25 04:24:36;;;;;;;36.70;6.93;;;19.60;49.50;;;;;;5072598;28;20636;-93
2023/05/25 04:27:04;;;;;;;33.37;6.97;;;19.60;49.60;;;;;;5068666;28;20207;-93
2023/05/25 04:29:32;;;;;;;41.57;7.43;;;19.60;49.60;;;;;;5084405;28;20277;-93
2023/05/25 04:32:01;;;;;;;37.40;7.30;;;19.60;49.60;;;;;;5088428;28;20308;-93
2023/05/25 04:34:28;;;;;;;40.63;7.43;;;19.60;49.60;;;;;;5087963;28;20241;-95
2023/05/25 04:36:56;;;;;;;34.07;6.70;;;19.60;49.70;;;;;;5085293;28;20211;-95
2023/05/25 04:39:24;;;;;;;39.77;6.97;;;19.60;49.60;;;;;;5089096;28;20542;-93
2023/05/25 04:41:52;;;;;;;54.27;8.17;;;19.50;50.10;;;;;;5083967;28;20301;-95
2023/05/25 04:44:19;;;;;;;40.40;7.10;;;19.50;49.50;;;;;;5088699;28;20230;-92
2023/05/25 04:46:46;;;;;;;33.20;6.67;;;19.50;49.60;;;;;;5070250;28;20268;-92
2023/05/25 04:49:15;;;;;;;39.70;7.50;;;19.50;49.60;;;;;;5067900;28;20243;-92
2023/05/25 04:51:44;;;;;;;46.10;7.23;;;19.50;49.60;;;;;;5070476;28;20612;-92
2023/05/25 04:54:11;;;;;;;40.70;7.43;;;19.50;49.60;;;;;;5067814;28;20242;-92
2023/05/25 04:56:40;;;;;;;32.80;6.50;;;19.40;49.60;;;;;;5070819;28;20378;-92
2023/05/25 04:59:07;;;;;;;38.43;7.07;;;19.50;49.60;;;;;;5071956;28;20227;-93
2023/05/25 05:01:39;;;;;;;38.30;7.27;;;19.40;49.60;;;;;;5077480;28;20198;-92
2023/05/25 05:04:06;;;;;;;38.00;6.93;;;19.40;49.60;;;;;;5089402;28;20552;-92
2023/05/25 05:06:39;;;;;;;45.97;7.63;;;19.40;49.60;;;;;;5074174;28;20237;-92
2023/05/25 05:09:12;;;;;;;41.07;7.40;;;19.40;49.60;;;;;;5088215;28;20199;-92
2023/05/25 05:11:46;;;;;;;40.00;7.20;;;19.40;49.60;;;;;;5091853;28;20217;-92
2023/05/25 05:14:13;;;;;;;39.67;7.53;;;19.40;49.60;;;;;;5089939;28;20234;-91
2023/05/25 05:16:40;;;;;;;34.87;6.87;;;19.30;49.60;;;;;;5091351;28;20314;-91
2023/05/25 05:19:07;;;;;;;32.40;6.40;;;19.30;49.60;;;;;;5089138;28;20343;-90
2023/05/25 05:21:34;;;;;;;47.70;7.87;;;19.40;49.70;;;;;;5089890;28;20237;-91
2023/05/25 05:24:01;;;;;;;45.63;7.93;;;19.30;49.60;;;;;;5074518;28;20211;-91
2023/05/25 05:26:28;;;;;;;65.93;9.23;;;19.30;49.60;;;;;;5077364;28;20206;-90
2023/05/25 05:28:57;;;;;;;37.93;7.40;;;19.30;49.70;;;;;;5090298;28;20205;-90
2023/05/25 05:31:26;;;;;;;44.57;7.37;;;19.30;49.70;;;;;;5091659;28;20203;-91
2023/05/25 05:33:53;;;;;;;41.47;7.47;;;19.30;49.70;;;;;;5099786;28;20295;-89
2023/05/25 05:36:19;;;;;;;40.00;7.10;;;19.30;49.70;;;;;;5110989;28;20654;-92
2023/05/25 05:38:46;;;;;;;34.90;6.57;;;19.30;49.80;;;;;;5091049;28;20191;-91
2023/05/25 05:41:13;;;;;;;35.97;7.13;;;19.30;49.80;;;;;;5078957;28;20298;-91
2023/05/25 05:43:42;;;;;;;37.97;7.20;;;19.30;49.80;;;;;;5087909;28;20264;-90
2023/05/25 05:46:10;;;;;;;41.10;7.17;;;19.30;49.90;;;;;;5091813;28;20206;-91
2023/05/25 05:48:37;;;;;;;63.93;9.70;;;19.30;49.90;;;;;;5089727;28;20233;-91
2023/05/25 05:51:05;;;;;;;36.83;7.23;;;19.30;50.00;;;;;;5080572;28;20202;-91
2023/05/25 05:53:34;;;;;;;51.87;8.53;;;19.30;50.00;;;;;;5088662;28;20226;-90
2023/05/25 05:56:01;;;;;;;32.63;7.27;;;19.30;50.00;;;;;;5088534;28;20214;-91
2023/05/25 05:58:28;;;;;;;35.73;7.43;;;19.30;50.00;;;;;;5090280;28;20260;-92
2023/05/25 06:00:56;;;;;;;37.93;7.20;;;19.30;50.10;;;;;;5071219;28;20743;-92
2023/05/25 06:03:26;;;;;;;45.90;8.40;;;19.30;50.10;;;;;;5070950;28;20203;-91
2023/05/25 06:06:01;;;;;;;38.30;7.60;;;19.30;50.10;;;;;;5071145;28;20212;-91
2023/05/25 06:08:27;;;;;;;47.17;8.23;;;19.30;50.10;;;;;;5069115;28;20191;-92
2023/05/25 06:10:55;;;;;;;39.70;7.23;;;19.30;50.20;;;;;;5067582;28;20211;-91
2023/05/25 06:13:22;;;;;;;40.80;7.97;;;19.30;50.20;;;;;;5069809;28;20207;-91
2023/05/25 06:15:49;;;;;;;45.60;7.83;;;19.30;50.30;;;;;;5069838;28;20980;-91
2023/05/25 06:18:16;;;;;;;30.97;7.07;;;19.30;50.30;;;;;;5071018;28;20298;-92
2023/05/25 06:20:44;;;;;;;44.20;7.87;;;19.30;50.30;;;;;;5077722;28;20204;-91
2023/05/25 06:23:12;;;;;;;34.70;6.90;;;19.30;50.30;;;;;;5069714;28;20257;-92
2023/05/25 06:25:40;;;;;;;39.13;7.70;;;19.30;50.30;;;;;;5072015;28;20245;-91
2023/05/25 06:28:07;;;;;;;41.97;8.07;;;19.30;50.30;;;;;;5070059;28;20299;-91
2023/05/25 06:30:34;;;;;;;37.20;7.43;;;19.40;50.40;;;;;;5080083;28;20206;-91
2023/05/25 06:33:01;;;;;;;39.87;7.70;;;19.40;50.40;;;;;;5075262;28;20199;-91
2023/05/25 06:35:28;;;;;;;37.07;7.37;;;19.30;50.30;;;;;;5069285;28;20603;-91
2023/05/25 06:37:57;;;;;;;56.80;8.60;;;19.40;51.00;;;;;;5069439;28;20203;-92
2023/05/25 06:40:24;;;;;;;36.70;7.30;;;19.40;50.40;;;;;;5083383;28;20310;-91
2023/05/25 06:42:51;;;;;;;35.30;7.10;;;19.40;50.40;;;;;;5081039;28;20254;-91
2023/05/25 06:45:18;;;;;;;37.93;7.40;;;19.40;50.40;;;;;;5088522;28;20289;-90
2023/05/25 06:47:45;;;;;;;48.10;8.27;;;19.40;50.40;;;;;;5089796;28;20203;-90
2023/05/25 06:50:12;;;;;;;33.87;7.03;;;19.40;50.40;;;;;;5076371;28;20630;-91
2023/05/25 06:52:39;;;;;;;49.13;8.37;;;19.50;50.50;;;;;;5074008;28;20210;-90
2023/05/25 06:55:11;;;;;;;38.07;7.40;;;19.40;50.40;;;;;;5090038;28;20214;-91
2023/05/25 06:57:38;;;;;;;40.87;7.77;;;19.50;50.50;;;;;;5082868;28;20219;-91
2023/05/25 07:00:07;;;;;;;44.30;7.70;;;19.50;50.50;;;;;;5087672;28;20784;-92
2023/05/25 07:02:34;;;;;;;43.97;8.27;;;19.50;50.50;;;;;;5089883;28;20233;-91
2023/05/25 07:05:03;;;;;;;41.60;7.93;;;19.50;50.50;;;;;;5088318;28;20722;-90
2023/05/25 07:07:30;;;;;;;36.60;6.80;;;19.50;50.50;;;;;;5089151;28;20679;-90
2023/05/25 07:09:57;;;;;;;40.07;7.47;;;19.50;50.50;;;;;;5084211;28;20203;-89
2023/05/25 07:12:25;;;;;;;39.03;7.40;;;19.60;50.60;;;;;;5071719;28;20750;-90
2023/05/25 07:14:52;;;;;;;42.90;7.67;;;19.50;50.50;;;;;;5068512;28;20325;-90
2023/05/25 07:17:20;;;;;;;38.73;7.03;;;19.60;50.60;;;;;;5069307;28;20203;-91
2023/05/25 07:19:48;;;;;;;41.63;7.67;;;19.60;50.60;;;;;;5069248;28;20219;-92
2023/05/25 07:22:17;;;;;;;42.07;7.17;;;19.60;50.60;;;;;;5072851;28;20222;-90
2023/05/25 07:24:44;;;;;;;35.63;7.13;;;19.60;50.60;;;;;;5069237;28;20203;-93
2023/05/25 07:27:11;;;;;;;43.03;7.30;;;19.60;50.60;;;;;;5068781;28;20251;-91
2023/05/25 07:29:40;;;;;;;38.80;7.17;;;19.70;50.70;;;;;;5071956;28;20279;-92
2023/05/25 07:34:50;;;;;;;44.67;7.60;;;19.70;50.70;;;;;;5084761;28;20230;-90
2023/05/25 07:37:17;;;;;;;36.67;7.13;;;19.70;50.70;;;;;;5081102;28;20641;-92
2023/05/25 07:39:44;;;;;;;38.67;7.00;;;19.70;50.70;;;;;;5069032;28;20618;-93
2023/05/25 07:42:11;;;;;;;40.77;7.43;;;19.70;50.80;;;;;;5081902;28;20242;-91
2023/05/25 07:44:39;;;;;;;36.50;6.97;;;19.80;50.80;;;;;;5074414;28;20203;-90
2023/05/25 07:47:25;;;;;;;38.90;7.00;;;19.80;50.80;;;;;;5068211;28;20681;-90
2023/05/25 07:49:52;;;;;;;42.13;7.73;;;19.80;50.80;;;;;;5068085;28;20207;-90
2023/05/25 07:52:20;;;;;;;51.97;8.67;;;19.80;50.80;;;;;;5068111;28;20187;-90
2023/05/25 07:54:47;;;;;;;33.87;7.13;;;19.80;50.80;;;;;;5080966;28;20337;-90
2023/05/25 07:57:14;;;;;;;46.10;7.93;;;19.80;50.80;;;;;;5088025;28;20246;-89
2023/05/25 07:59:43;;;;;;;37.60;7.20;;;19.90;50.90;;;;;;5088356;28;20759;-90
2023/05/25 08:02:17;;;;;;;43.10;7.63;;;19.80;50.80;;;;;;5088433;28;20202;-89
2023/05/25 08:04:44;;;;;;;35.53;7.33;;;19.90;50.90;;;;;;5087444;28;20213;-90
2023/05/25 08:07:11;;;;;;;43.30;7.67;;;19.90;50.80;;;;;;5086581;28;20213;-90
2023/05/25 08:09:38;;;;;;;56.00;8.23;;;19.90;50.90;;;;;;5087008;28;20191;-91
2023/05/25 08:12:05;;;;;;;46.90;7.93;;;19.90;50.90;;;;;;5085740;28;20199;-90
2023/05/25 08:14:32;;;;;;;43.20;7.57;;;19.90;50.90;;;;;;5071935;28;20226;-90
2023/05/25 08:17:09;;;;;;;41.23;7.50;;;20.00;51.00;;;;;;5076852;28;20199;-91
2023/05/25 08:19:36;;;;;;;39.73;7.17;;;20.00;51.00;;;;;;5077550;28;20207;-91
2023/05/25 08:22:03;;;;;;;39.83;7.10;;;20.00;51.00;;;;;;5069960;28;20679;-90
2023/05/25 08:24:30;;;;;;;40.90;7.17;;;20.00;50.90;;;;;;5067910;28;20202;-90
2023/05/25 08:26:58;;;;;;;33.30;6.63;;;20.10;51.10;;;;;;5068195;28;20192;-88
2023/05/25 08:29:25;;;;;;;39.87;7.20;;;20.00;50.90;;;;;;5068672;28;20210;-92
2023/05/25 08:31:52;;;;;;;32.90;6.30;;;20.10;51.10;;;;;;5085026;28;20317;-92
2023/05/25 08:34:20;;;;;;;45.90;7.27;;;20.10;51.10;;;;;;5084333;28;20603;-92
2023/05/25 08:36:47;;;;;;;37.10;7.33;;;20.10;51.00;;;;;;5093565;28;20205;-91
2023/05/25 08:39:15;;;;;;;39.43;7.67;;;20.10;51.10;;;;;;5093191;28;20710;-92
2023/05/25 08:41:44;;;;;;;44.93;7.70;;;20.10;51.10;;;;;;5092805;28;20189;-91
2023/05/25 08:44:13;;;;;;;43.80;7.10;;;20.10;51.10;;;;;;5091541;28;20206;-89
2023/05/25 08:46:40;;;;;;;49.53;8.30;;;20.20;51.10;;;;;;5090931;28;20241;-89
2023/05/25 08:49:14;;;;;;;64.73;9.37;;;20.10;51.20;;;;;;5089673;28;20207;-90
2023/05/25 08:51:55;;;;;;;65.67;8.83;;;20.20;51.30;;;;;;5072164;28;20226;-90
2023/05/25 08:54:25;;;;;;;43.37;7.30;;;20.20;51.30;;;;;;5071912;28;20253;-90
2023/05/25 08:56:55;;;;;;;31.23;6.30;;;20.20;51.30;;;;;;5083649;28;20203;-90
2023/05/25 08:59:31;;;;;;;47.37;8.00;;;20.20;51.20;;;;;;5090283;28;20219;-89
2023/05/25 09:02:30;;;;;;;33.43;6.40;;;20.30;51.40;;;;;;5089910;28;20209;-89
2023/05/25 09:04:58;;;;;;;60.10;9.00;;;20.30;51.40;;;;;;5088334;28;20290;-90
2023/05/25 09:07:27;;;;;;;49.33;8.50;;;20.30;51.30;;;;;;5101610;28;20266;-89
2023/05/25 09:09:55;;;;;;;48.23;7.93;;;20.30;51.40;;;;;;5090371;28;20196;-89
2023/05/25 09:12:22;;;;;;;44.57;7.83;;;20.40;51.50;;;;;;5092348;28;20207;-89
2023/05/25 09:14:49;;;;;;;49.97;7.90;;;20.40;51.50;;;;;;5091507;28;20230;-89
2023/05/25 09:17:18;;;;;;;36.47;6.93;;;20.40;51.50;;;;;;5083186;28;20326;-89
2023/05/25 09:19:46;;;;;;;54.20;8.30;;;20.40;51.50;;;;;;5071536;28;20199;-88
2023/05/25 09:22:13;;;;;;;30.30;5.97;;;20.50;51.60;;;;;;5086113;28;20292;-89
2023/05/25 09:24:43;;;;;;;44.53;7.27;;;20.50;51.60;;;;;;5089809;28;20284;-89
2023/05/25 09:27:12;;;;;;;39.07;7.43;;;20.50;51.60;;;;;;5087350;28;20198;-89
2023/05/25 09:29:39;;;;;;;48.93;7.63;;;20.60;51.70;;;;;;5090841;28;20199;-89
2023/05/25 09:32:07;;;;;;;56.10;8.47;;;20.60;51.70;;;;;;5079045;28;20203;-89
2023/05/25 09:34:37;;;;;;;34.43;6.73;;;20.60;51.70;;;;;;5082447;28;20189;-89
2023/05/25 09:37:10;;;;;;;35.63;7.23;;;20.70;51.70;;;;;;5076495;28;20690;-89
2023/05/25 09:39:38;;;;;;;33.07;6.63;;;20.70;51.80;;;;;;5086484;28;20213;-89
2023/05/25 09:42:06;;;;;;;32.30;6.83;;;20.70;51.80;;;;;;5073675;28;20199;-88
2023/05/25 09:44:33;;;;;;;65.30;9.53;;;20.70;51.80;;;;;;5076978;28;20214;-89
2023/05/25 09:47:01;;;;;;;38.80;7.17;;;20.80;51.90;;;;;;5080438;28;20198;-88
2023/05/25 09:49:28;;;;;;;38.27;7.40;;;20.80;51.90;;;;;;5075370;28;20250;-88
2023/05/25 09:51:56;;;;;;;53.03;8.13;;;20.90;51.90;;;;;;5070575;28;20209;-90
2023/05/25 09:54:23;;;;;;;59.53;8.97;;;20.90;51.90;;;;;;5072891;28;20802;-89
2023/05/25 09:56:50;;;;;;;35.03;6.93;;;20.90;51.90;;;;;;5071095;28;20207;-90
2023/05/25 09:59:18;;;;;;;44.97;6.87;;;21.00;52.00;;;;;;5070786;28;20217;-90
2023/05/25 10:01:50;;;;;;;39.50;7.47;;;21.00;52.00;;;;;;5078807;28;20208;-89
2023/05/25 10:04:17;;;;;;;37.00;6.57;;;21.00;52.00;;;;;;5073850;28;20212;-90
2023/05/25 10:06:48;;;;;;;38.67;7.17;;;21.10;52.00;;;;;;5070337;28;20690;-90
2023/05/25 10:09:18;;;;;;;41.53;7.10;;;21.10;52.00;;;;;;5070927;28;20694;-89
2023/05/25 10:11:45;;;;;;;41.77;7.03;;;21.10;52.00;;;;;;5070562;28;20194;-90
2023/05/25 10:14:17;;;;;;;36.67;6.80;;;21.20;52.10;;;;;;5071756;28;20208;-90
2023/05/25 10:16:48;;;;;;;36.17;6.80;;;21.20;52.20;;;;;;5070398;28;20227;-88
2023/05/25 10:19:20;;;;;;;29.27;5.93;;;21.20;52.20;;;;;;5070316;28;20214;-89
2023/05/25 10:21:54;;;;;;;28.50;6.07;;;21.30;52.30;;;;;;5071305;28;20256;-89
2023/05/25 10:24:29;;;;;;;30.07;6.17;;;21.30;52.30;;;;;;5070319;28;20555;-90
2023/05/25 10:27:01;;;;;;;34.47;6.60;;;21.40;52.30;;;;;;5086838;28;20213;-90
2023/05/25 10:29:29;;;;;;;39.03;6.63;;;21.40;52.30;;;;;;5072251;28;20300;-88
2023/05/25 10:31:59;;;;;;;22.20;5.03;;;21.50;52.40;;;;;;5075710;28;20205;-89
2023/05/25 10:34:27;;;;;;;37.90;7.20;;;21.50;52.40;;;;;;5070736;28;20230;-89
2023/05/25 10:36:56;;;;;;;22.93;5.63;;;21.50;52.40;;;;;;5073502;28;20227;-90
2023/05/25 10:39:23;;;;;;;40.50;7.20;;;21.50;52.40;;;;;;5078040;28;20667;-91
2023/05/25 10:41:52;;;;;;;46.20;7.77;;;21.60;52.50;;;;;;5085326;28;20676;-91
2023/05/25 10:44:20;;;;;;;44.67;7.77;;;21.60;52.50;;;;;;5075498;28;20674;-91
2023/05/25 10:46:48;;;;;;;36.33;7.00;;;21.70;52.50;;;;;;5076936;28;20561;-92
2023/05/25 10:49:26;;;;;;;38.03;6.97;;;21.70;52.60;;;;;;5077110;28;20219;-91
2023/05/25 10:51:58;;;;;;;48.27;8.20;;;21.80;52.60;;;;;;5083545;28;20874;-92
2023/05/25 10:54:29;;;;;;;31.17;6.73;;;21.80;52.60;;;;;;5068410;28;20535;-91
2023/05/25 10:57:10;;;;;;;35.50;6.87;;;21.80;52.70;;;;;;5075588;28;20237;-92
2023/05/25 10:59:40;;;;;;;43.00;7.70;;;21.90;52.70;;;;;;5077470;28;20275;-91
2023/05/25 11:02:07;;;;;;;36.27;7.10;;;21.90;52.70;;;;;;5081855;28;20199;-92
2023/05/25 11:04:36;;;;;;;54.90;8.20;;;21.90;52.60;;;;;;5076638;28;20555;-89
2023/05/25 11:07:12;;;;;;;35.93;6.60;;;22.00;52.70;;;;;;5086185;28;20209;-88
2023/05/25 11:09:44;;;;;;;35.33;7.03;;;22.00;52.70;;;;;;5080404;28;20448;-89
2023/05/25 11:12:21;;;;;;;45.27;7.83;;;22.00;52.90;;;;;;5081312;28;20222;-90
2023/05/25 11:15:14;;;;;;;37.73;7.53;;;22.00;52.80;;;;;;5083980;28;20199;-90
2023/05/25 11:18:01;;;;;;;37.87;7.13;;;22.10;52.90;;;;;;5069329;28;20199;-91
2023/05/25 11:20:29;;;;;;;43.77;7.77;;;22.20;53.40;;;;;;5068895;28;20210;-91
2023/05/25 11:22:59;;;;;;;36.70;7.00;;;22.20;52.70;;;;;;5068888;28;20234;-91
2023/05/25 11:25:36;;;;;;;54.20;7.93;;;22.20;52.70;;;;;;5071432;28;20211;-91
2023/05/25 11:28:05;;;;;;;53.90;8.40;;;22.30;52.80;;;;;;5085125;28;20268;-91
2023/05/25 11:30:32;;;;;;;48.07;7.73;;;22.30;52.70;;;;;;5088653;28;20696;-90
2023/05/25 11:33:02;;;;;;;45.10;8.00;;;22.30;52.60;;;;;;5088775;28;20183;-89
2023/05/25 11:35:32;;;;;;;35.27;6.60;;;22.40;52.70;;;;;;5088365;28;20210;-89
2023/05/25 11:38:01;;;;;;;33.73;6.53;;;22.40;52.70;;;;;;5088813;28;20248;-91
2023/05/25 11:40:31;;;;;;;42.70;7.53;;;22.40;52.60;;;;;;5088766;28;20198;-89
2023/05/25 11:43:00;;;;;;;37.37;6.70;;;22.50;52.70;;;;;;5082366;28;20203;-89
2023/05/25 11:45:29;;;;;;;45.87;7.87;;;22.50;52.80;;;;;;5088528;28;20238;-88
2023/05/25 11:47:56;;;;;;;40.57;7.67;;;22.50;52.70;;;;;;5088672;28;20218;-89
2023/05/25 11:50:23;;;;;;;39.47;7.07;;;22.50;52.70;;;;;;5088663;28;20259;-91
2023/05/25 11:52:52;;;;;;;49.07;7.83;;;22.50;52.70;;;;;;5085541;28;20207;-92
2023/05/25 11:55:20;;;;;;;35.67;6.90;;;22.50;52.60;;;;;;5088612;28;20210;-92
2023/05/25 11:57:47;;;;;;;55.47;8.43;;;22.60;52.70;;;;;;5085825;28;20623;-92
2023/05/25 12:00:25;;;;;;;33.20;6.53;;;22.50;52.70;;;;;;5070273;28;20224;-90
2023/05/25 12:02:52;;;;;;;44.87;7.80;;;22.60;52.80;;;;;;5083736;28;20569;-90
2023/05/25 12:05:19;;;;;;;36.77;6.93;;;22.60;52.70;;;;;;5079649;28;20211;-89
2023/05/25 12:07:46;;;;;;;32.20;6.63;;;22.60;52.80;;;;;;5067876;28;20209;-90
2023/05/25 12:10:16;;;;;;;32.17;6.37;;;22.60;52.70;;;;;;5068163;28;20203;-89
2023/05/25 12:12:43;;;;;;;43.27;7.30;;;22.60;52.70;;;;;;5067632;28;20209;-88
2023/05/25 12:15:12;;;;;;;32.40;7.13;;;22.60;52.70;;;;;;5068368;28;20213;-89
2023/05/25 12:17:41;;;;;;;35.27;6.67;;;22.60;52.70;;;;;;5068842;28;20203;-89
2023/05/25 12:20:10;;;;;;;31.73;6.57;;;22.70;52.80;;;;;;5068479;28;20861;-89
2023/05/25 12:22:37;;;;;;;35.37;6.73;;;22.70;52.80;;;;;;5072669;28;20393;-89
2023/05/25 12:25:06;;;;;;;34.47;7.83;;;22.70;52.80;;;;;;5082400;28;20577;-88
2023/05/25 12:27:35;;;;;;;40.63;8.03;;;22.70;52.80;;;;;;5088105;28;20559;-90
2023/05/25 12:30:03;;;;;;;45.87;7.83;;;22.80;52.80;;;;;;5072363;28;20195;-89
2023/05/25 12:32:30;;;;;;;37.73;7.10;;;22.80;52.80;;;;;;5087664;28;20296;-88
2023/05/25 12:35:18;;;;;;;45.60;8.27;;;22.70;52.80;;;;;;5084258;28;20515;-89
2023/05/25 12:37:45;;;;;;;41.20;7.57;;;22.80;53.00;;;;;;5080393;28;20210;-89
2023/05/25 12:40:19;;;;;;;37.60;7.27;;;22.80;52.90;;;;;;5075936;28;20214;-89
2023/05/25 12:42:56;;;;;;;37.57;6.97;;;22.80;53.00;;;;;;5078152;28;20206;-89
2023/05/25 12:45:23;;;;;;;34.03;7.80;;;22.80;53.00;;;;;;5089347;28;20190;-87
2023/05/25 12:47:50;;;;;;;39.27;7.57;;;22.90;53.00;;;;;;5067642;28;20570;-89
2023/05/25 12:50:18;;;;;;;28.73;6.73;;;22.80;52.90;;;;;;5067779;28;20207;-89